KIGQ

Details ICAO KIGQ (IGQ)
Name LANSING MUNI
Region United States
Timezone America/Chicago (UTC-6.0)
Plans Departing 6
Arriving 8
Stats Elevation 620 ft / 189 m (AMSL)
Location 41.535286° -87.529690°
Runways 2
Magnetic Variation 3.958° W
Sunrise 2017-12-11 13:08:14 UTC / 2017-12-11 07:08:14 Local
Sunset 2017-12-11 22:21:39 UTC / 2017-12-11 16:21:39 Local
Advertisement - Login to hide

Runways

ID Width Length Bearing (true) Bearing (mag) Surface Threshold Offset Overrun Length
09 75 ft / 23 m 3,388 ft / 1,033 m 90.17° 94.13° Asphalt 0 ft / 0 m 0 ft / 0 m
18 75 ft / 23 m 4,008 ft / 1,222 m 180.14° 184.10° Asphalt 350 ft / 107 m 0 ft / 0 m
27 75 ft / 23 m 3,388 ft / 1,033 m 270.18° 274.14° Asphalt 0 ft / 0 m 0 ft / 0 m
36 75 ft / 23 m 4,008 ft / 1,222 m 0.14° 4.10° Asphalt 0 ft / 0 m 0 ft / 0 m

Map

Weather


0- 5 10 15 20 25 30 35+ Temperature / ° C

Clouds and Precipitation
Forecast for 2017-12-11 18:00 UTC. Updated 2 hours ago

Ground ~20,000 ft ~40,000 ft Winds

METAR

KIGQ 111635Z AUTO 16008G14KT 10SM SCT110 00/M03 A2985 RMK AO2 T00001034

TAF

Not found

Frequencies

Recorded 119.27 MHz AWOS 3
Approach 118.40 MHz CHICAGO APP/DEP
Unicom 122.70 MHz CTAF/UNICOM
Warning: Do not use this data for real-world aviation or navigation. No guarantee of current accuracy is given.